createdAt,value
2022-12-06T00:02:13.072Z,74.20
2022-12-06T00:04:39.923Z,74.03
2022-12-06T00:07:07.003Z,74.08
2022-12-06T00:09:34.474Z,74.25
2022-12-06T00:12:01.204Z,74.29
2022-12-06T00:14:28.204Z,74.49
2022-12-06T00:16:55.160Z,74.40
2022-12-06T00:19:23.869Z,74.33
2022-12-06T00:21:52.824Z,74.45
2022-12-06T00:24:21.987Z,74.64
2022-12-06T00:26:50.107Z,74.76
2022-12-06T00:29:21.725Z,74.72
2022-12-06T00:31:49.581Z,74.89
2022-12-06T00:34:16.989Z,74.72
2022-12-06T00:36:43.894Z,74.55
2022-12-06T00:39:17.237Z,74.59
2022-12-06T00:41:45.380Z,74.85
2022-12-06T00:44:12.485Z,74.81
2022-12-06T00:46:39.816Z,74.98
2022-12-06T00:49:08.048Z,74.96
2022-12-06T00:51:37.183Z,74.85
2022-12-06T00:54:04.504Z,74.98
2022-12-06T00:56:32.404Z,74.81
2022-12-06T00:58:59.479Z,74.57
2022-12-06T01:01:29.323Z,74.37
2022-12-06T01:04:02.781Z,74.30
2022-12-06T01:06:32.641Z,74.23
2022-12-06T01:09:03.219Z,74.38
2022-12-06T01:11:30.556Z,74.33
2022-12-06T01:13:58.166Z,74.27
2022-12-06T01:16:29.019Z,74.31
2022-12-06T01:19:01.531Z,74.15
2022-12-06T01:21:29.039Z,74.43
2022-12-06T01:23:55.867Z,74.33
2022-12-06T01:26:25.490Z,74.18
2022-12-06T01:28:53.002Z,74.37
2022-12-06T01:31:20.170Z,74.05
2022-12-06T01:33:47.299Z,74.15
2022-12-06T01:36:22.571Z,73.81
2022-12-06T01:38:57.324Z,73.95
2022-12-06T01:41:26.408Z,73.98
2022-12-06T01:43:53.982Z,73.91
2022-12-06T01:46:38.482Z,73.83
2022-12-06T01:49:11.733Z,73.97
2022-12-06T01:51:41.085Z,73.81
2022-12-06T01:54:11.423Z,73.93
2022-12-06T01:56:40.411Z,73.93
2022-12-06T01:59:08.303Z,73.95
2022-12-06T02:01:36.125Z,73.95
2022-12-06T02:04:03.161Z,73.87
2022-12-06T02:06:32.073Z,73.85
2022-12-06T02:09:01.274Z,73.65
2022-12-06T02:11:32.159Z,73.64
2022-12-06T02:14:05.071Z,73.74
2022-12-06T02:16:31.742Z,73.96
2022-12-06T02:19:13.570Z,73.62
2022-12-06T02:21:58.019Z,73.70
2022-12-06T02:24:44.523Z,73.73
2022-12-06T02:27:20.538Z,73.85
2022-12-06T02:30:08.940Z,73.72
2022-12-06T02:32:55.101Z,73.77
2022-12-06T02:35:25.229Z,73.65
2022-12-06T02:37:59.885Z,73.70
2022-12-06T02:40:42.996Z,73.68
2022-12-06T02:43:16.143Z,73.76
2022-12-06T02:45:50.329Z,73.73
2022-12-06T02:48:19.423Z,73.57
2022-12-06T02:50:53.695Z,73.49
2022-12-06T02:53:24.221Z,73.61
2022-12-06T02:55:52.140Z,73.49
2022-12-06T02:58:18.951Z,73.58
2022-12-06T03:00:50.906Z,73.61
2022-12-06T03:03:49.484Z,73.65
2022-12-06T03:06:40.918Z,73.35
2022-12-06T03:09:29.685Z,73.58
2022-12-06T03:12:08.551Z,73.65
2022-12-06T03:14:46.448Z,73.72
2022-12-06T03:17:44.087Z,73.62
2022-12-06T03:20:43.174Z,73.76
2022-12-06T03:23:17.364Z,73.94
2022-12-06T03:25:46.924Z,73.95
2022-12-06T03:28:16.764Z,74.01
2022-12-06T03:30:49.439Z,74.15
2022-12-06T03:33:18.675Z,74.17
2022-12-06T03:35:47.215Z,73.96
2022-12-06T03:38:37.525Z,74.04
2022-12-06T03:41:06.096Z,74.99
2022-12-06T03:43:33.921Z,74.53
2022-12-06T03:46:17.838Z,74.59
2022-12-06T03:48:53.980Z,74.48
2022-12-06T03:51:26.327Z,74.52
2022-12-06T03:53:56.487Z,74.65
2022-12-06T03:56:23.770Z,74.70
2022-12-06T03:58:50.663Z,74.70
2022-12-06T04:01:17.801Z,74.65
2022-12-06T04:03:44.940Z,74.81
2022-12-06T04:06:12.397Z,74.65
2022-12-06T04:08:39.328Z,74.71
2022-12-06T04:11:06.468Z,74.74
2022-12-06T04:13:33.564Z,74.78
2022-12-06T04:16:01.851Z,75.01
2022-12-06T04:18:28.746Z,75.09
2022-12-06T04:21:19.957Z,74.84
2022-12-06T04:23:49.467Z,75.20
2022-12-06T04:26:19.385Z,74.96
2022-12-06T04:29:04.999Z,75.01
2022-12-06T04:31:50.482Z,74.71
2022-12-06T04:34:36.141Z,74.99
2022-12-06T04:37:21.520Z,74.87
2022-12-06T04:39:48.666Z,74.99
2022-12-06T04:42:34.099Z,75.09
2022-12-06T04:45:01.021Z,75.34
2022-12-06T04:47:28.517Z,75.48
2022-12-06T04:49:55.420Z,75.46
2022-12-06T04:52:22.162Z,75.54
2022-12-06T04:54:48.928Z,75.56
2022-12-06T04:57:16.972Z,75.49
2022-12-06T04:59:46.281Z,75.65
2022-12-06T05:02:14.796Z,75.82
2022-12-06T05:04:41.738Z,75.83
2022-12-06T05:07:08.783Z,75.92
2022-12-06T05:09:35.568Z,75.88
2022-12-06T05:12:02.516Z,75.91
2022-12-06T05:14:29.316Z,75.51
2022-12-06T05:16:56.076Z,75.31
2022-12-06T05:19:22.948Z,75.39
2022-12-06T05:21:49.640Z,75.25
2022-12-06T05:24:16.364Z,75.30
2022-12-06T05:26:43.287Z,75.51
2022-12-06T05:29:10.090Z,75.26
2022-12-06T05:31:36.851Z,75.16
2022-12-06T05:34:03.683Z,75.09
2022-12-06T05:36:30.515Z,75.22
2022-12-06T05:38:57.584Z,75.73
2022-12-06T05:41:25.235Z,75.50
2022-12-06T05:43:52.188Z,75.42
2022-12-06T05:46:19.077Z,75.66
2022-12-06T05:48:45.969Z,75.47
2022-12-06T05:51:14.072Z,75.40
2022-12-06T05:53:41.483Z,75.38
2022-12-06T05:56:11.518Z,75.48
2022-12-06T05:58:40.029Z,75.68
2022-12-06T06:01:08.252Z,75.64
2022-12-06T06:03:35.980Z,75.78
2022-12-06T06:06:03.238Z,75.97
2022-12-06T06:08:30.654Z,76.14
2022-12-06T06:10:58.280Z,76.33
2022-12-06T06:13:25.349Z,76.50
2022-12-06T06:15:52.375Z,76.24
2022-12-06T06:18:19.744Z,76.53
2022-12-06T06:20:55.034Z,76.56
2022-12-06T06:23:22.885Z,76.52
2022-12-06T06:25:49.649Z,76.22
2022-12-06T06:28:17.022Z,76.17
2022-12-06T06:30:44.979Z,76.08
2022-12-06T06:33:12.635Z,76.01
2022-12-06T06:35:39.588Z,76.01
2022-12-06T06:38:06.831Z,76.01
2022-12-06T06:40:33.914Z,75.81
2022-12-06T06:43:18.555Z,76.02
2022-12-06T06:45:56.657Z,76.14
2022-12-06T06:48:24.779Z,76.32
2022-12-06T06:50:56.966Z,76.42
2022-12-06T06:53:26.570Z,76.28
2022-12-06T06:55:54.407Z,76.39
2022-12-06T06:58:21.128Z,76.37
2022-12-06T07:00:55.937Z,76.89
2022-12-06T07:03:23.661Z,76.45
2022-12-06T07:05:53.446Z,76.58
2022-12-06T07:08:20.939Z,76.97
2022-12-06T07:10:48.953Z,77.00
2022-12-06T07:13:16.745Z,77.09
2022-12-06T07:15:43.493Z,77.27
2022-12-06T07:18:10.819Z,77.49
2022-12-06T07:20:37.545Z,77.44
2022-12-06T07:23:06.495Z,77.61
2022-12-06T07:25:33.569Z,77.64
2022-12-06T07:28:06.183Z,77.53
2022-12-06T07:30:37.412Z,77.52
2022-12-06T07:33:04.282Z,77.53
2022-12-06T07:36:03.151Z,77.69
2022-12-06T07:38:26.867Z,77.61
2022-12-06T07:41:25.431Z,77.67
2022-12-06T07:44:18.227Z,78.00
2022-12-06T07:46:51.934Z,78.06
2022-12-06T07:49:19.968Z,78.03
2022-12-06T07:51:47.210Z,78.19
2022-12-06T07:54:15.422Z,78.03
2022-12-06T07:56:43.958Z,78.17
2022-12-06T07:59:11.447Z,78.31
2022-12-06T08:01:38.614Z,78.38
2022-12-06T08:04:06.428Z,78.60
2022-12-06T08:06:34.195Z,78.74
2022-12-06T08:09:01.073Z,78.86
2022-12-06T08:11:28.906Z,78.83
2022-12-06T08:13:55.920Z,78.91
2022-12-06T08:16:22.922Z,78.95
2022-12-06T08:18:50.005Z,78.65
2022-12-06T08:21:16.741Z,78.99
2022-12-06T08:23:43.419Z,79.04
2022-12-06T08:26:14.420Z,78.81
2022-12-06T08:28:43.342Z,78.89
2022-12-06T08:31:16.273Z,78.90
2022-12-06T08:33:43.623Z,78.71
2022-12-06T08:36:13.212Z,78.59
2022-12-06T08:38:40.377Z,78.67
2022-12-06T08:41:28.790Z,78.48
2022-12-06T08:43:57.156Z,78.33
2022-12-06T08:46:24.761Z,78.13
2022-12-06T08:48:52.406Z,78.11
2022-12-06T08:51:19.173Z,78.13
2022-12-06T08:53:46.288Z,77.86
2022-12-06T08:56:13.411Z,77.58
2022-12-06T08:58:40.355Z,77.65
2022-12-06T09:01:16.668Z,77.35
2022-12-06T09:03:43.605Z,77.32
2022-12-06T09:06:11.260Z,77.24
2022-12-06T09:08:38.318Z,77.17
2022-12-06T09:11:06.149Z,76.92
2022-12-06T09:13:34.721Z,76.88
2022-12-06T09:16:06.678Z,76.51
2022-12-06T09:18:33.812Z,76.44
2022-12-06T09:21:05.465Z,76.41
2022-12-06T09:23:32.427Z,76.32
2022-12-06T09:25:59.263Z,75.98
2022-12-06T09:28:26.344Z,76.02
2022-12-06T09:30:53.055Z,75.80
2022-12-06T09:33:19.759Z,75.81
2022-12-06T09:35:46.757Z,75.96
2022-12-06T09:38:13.891Z,75.94
2022-12-06T09:40:52.871Z,75.82
2022-12-06T09:43:19.539Z,76.09
2022-12-06T09:45:56.469Z,76.00
2022-12-06T09:48:45.677Z,76.22
2022-12-06T09:51:24.557Z,76.20
2022-12-06T09:54:23.142Z,76.20
2022-12-06T09:57:07.785Z,76.24
2022-12-06T09:59:57.797Z,76.12
2022-12-06T10:02:30.807Z,76.07
2022-12-06T10:05:39.077Z,75.91
2022-12-06T10:08:27.603Z,75.50
2022-12-06T10:11:31.061Z,75.49
2022-12-06T10:14:12.839Z,75.39
2022-12-06T10:16:57.908Z,75.27
2022-12-06T10:19:58.291Z,74.92
2022-12-06T10:22:44.258Z,74.71
2022-12-06T10:25:24.979Z,73.96
2022-12-06T10:28:37.561Z,74.36
2022-12-06T10:31:40.994Z,73.74
2022-12-06T10:34:36.681Z,72.18
2022-12-06T10:37:18.339Z,72.10
2022-12-06T10:39:59.817Z,71.76
2022-12-06T10:42:34.211Z,71.70
2022-12-06T10:45:34.389Z,71.59
2022-12-06T10:48:02.710Z,72.04
2022-12-06T10:50:33.280Z,70.65
2022-12-06T10:53:13.509Z,70.46
2022-12-06T10:55:58.499Z,70.71
2022-12-06T10:58:31.333Z,70.31
2022-12-06T11:01:02.092Z,69.96
2022-12-06T11:03:44.050Z,70.18
2022-12-06T11:06:44.210Z,68.85
2022-12-06T11:09:13.691Z,68.84
2022-12-06T11:11:41.668Z,68.94
2022-12-06T11:14:20.614Z,68.66
2022-12-06T11:17:05.878Z,68.39
2022-12-06T11:19:39.634Z,67.19
2022-12-06T11:22:45.152Z,65.85
2022-12-06T11:25:15.445Z,62.30
2022-12-06T11:27:49.636Z,59.62
2022-12-06T11:30:20.552Z,58.77
2022-12-06T11:32:51.865Z,58.60
2022-12-06T11:35:28.616Z,59.23
2022-12-06T11:38:00.418Z,57.12
2022-12-06T11:40:34.481Z,55.65
2022-12-06T11:43:05.675Z,55.53
2022-12-06T11:45:35.013Z,55.14
2022-12-06T11:48:28.849Z,55.97
2022-12-06T11:50:55.784Z,56.51
2022-12-06T11:53:33.648Z,57.19
2022-12-06T11:56:26.749Z,58.51
2022-12-06T11:59:07.911Z,59.24
2022-12-06T12:01:55.121Z,58.94
2022-12-06T12:04:37.122Z,58.57
2022-12-06T12:07:09.993Z,58.70
2022-12-06T12:09:56.021Z,59.04
2022-12-06T12:13:08.586Z,59.34
2022-12-06T12:15:36.617Z,59.32
2022-12-06T12:18:04.668Z,58.87
2022-12-06T12:20:36.585Z,58.37
2022-12-06T12:23:22.012Z,58.33
2022-12-06T12:26:13.688Z,57.95
2022-12-06T12:28:43.190Z,56.73
2022-12-06T12:31:26.849Z,54.77
2022-12-06T12:34:14.900Z,54.87
2022-12-06T12:36:48.576Z,52.03
2022-12-06T12:39:39.457Z,52.33
2022-12-06T12:42:29.241Z,50.25
2022-12-06T12:45:01.252Z,49.79
2022-12-06T12:47:28.836Z,49.50
2022-12-06T12:50:23.982Z,49.42
2022-12-06T12:52:52.009Z,47.20
2022-12-06T12:55:26.210Z,46.00
2022-12-06T12:57:55.014Z,45.43
2022-12-06T13:00:25.878Z,46.46
2022-12-06T13:03:18.121Z,45.32
2022-12-06T13:05:53.964Z,43.76
2022-12-06T13:08:27.136Z,45.39
2022-12-06T13:10:59.450Z,46.42
2022-12-06T13:13:49.975Z,46.73
2022-12-06T13:16:35.536Z,45.22
2022-12-06T13:19:03.022Z,45.52
2022-12-06T13:21:41.342Z,47.41
2022-12-06T13:24:18.308Z,48.83
2022-12-06T13:26:50.027Z,49.41
2022-12-06T13:29:34.764Z,50.32
2022-12-06T13:32:14.988Z,51.21
2022-12-06T13:34:47.691Z,52.27
2022-12-06T13:37:34.861Z,53.34
2022-12-06T13:40:03.477Z,54.10
2022-12-06T13:42:36.369Z,54.86
2022-12-06T13:45:06.012Z,55.49
2022-12-06T13:47:32.625Z,56.49
2022-12-06T13:50:16.377Z,57.00
2022-12-06T13:52:43.156Z,57.23
2022-12-06T13:55:25.058Z,57.80
2022-12-06T13:58:00.642Z,58.34
2022-12-06T14:00:30.440Z,58.82
2022-12-06T14:03:21.853Z,59.32
2022-12-06T14:06:15.741Z,59.84
2022-12-06T14:08:54.367Z,60.25
2022-12-06T14:11:32.932Z,60.32
2022-12-06T14:14:09.918Z,60.45
2022-12-06T14:16:42.338Z,60.86
2022-12-06T14:19:28.465Z,60.77
2022-12-06T14:22:17.075Z,61.30
2022-12-06T14:25:04.442Z,61.06
2022-12-06T14:27:34.522Z,61.46
2022-12-06T14:30:04.621Z,61.91
2022-12-06T14:32:35.462Z,62.35
2022-12-06T14:35:11.599Z,62.54
2022-12-06T14:37:39.052Z,62.37
2022-12-06T14:40:44.525Z,62.37
2022-12-06T14:43:17.588Z,62.48
2022-12-06T14:45:45.714Z,62.64
2022-12-06T14:48:13.471Z,62.45
2022-12-06T14:50:58.521Z,62.22
2022-12-06T14:53:32.785Z,62.10
2022-12-06T14:56:03.391Z,62.12
2022-12-06T14:58:36.169Z,62.11
2022-12-06T15:01:15.164Z,62.26
2022-12-06T15:03:42.013Z,62.53
2022-12-06T15:06:21.639Z,62.33
2022-12-06T15:08:58.935Z,62.54
2022-12-06T15:11:59.912Z,63.01
2022-12-06T15:14:47.886Z,63.30
2022-12-06T15:17:22.316Z,63.30
2022-12-06T15:19:51.460Z,63.70
2022-12-06T15:22:24.814Z,64.01
2022-12-06T15:24:57.571Z,63.77
2022-12-06T15:27:27.172Z,63.92
2022-12-06T15:29:54.275Z,63.98
2022-12-06T15:32:23.850Z,64.03
2022-12-06T15:34:50.588Z,63.68
2022-12-06T15:40:04.828Z,63.37
2022-12-06T15:42:31.614Z,63.84
2022-12-06T15:44:58.306Z,64.06
2022-12-06T15:47:25.392Z,64.13
2022-12-06T15:49:54.026Z,63.98
2022-12-06T15:52:24.894Z,64.04
2022-12-06T15:54:52.047Z,64.60
2022-12-06T15:57:18.737Z,64.56
2022-12-06T15:59:45.621Z,64.73
2022-12-06T16:02:17.574Z,64.67
2022-12-06T16:04:45.107Z,64.95
2022-12-06T16:07:14.388Z,65.29
2022-12-06T16:09:41.186Z,65.37
2022-12-06T16:12:07.936Z,65.45
2022-12-06T16:14:34.638Z,65.53
2022-12-06T16:17:02.021Z,65.63
2022-12-06T16:19:48.868Z,65.87
2022-12-06T16:22:15.765Z,66.08
2022-12-06T16:24:42.516Z,66.25
2022-12-06T16:27:09.341Z,65.80
2022-12-06T16:29:36.152Z,66.45
2022-12-06T16:32:03.035Z,66.21
2022-12-06T16:34:30.277Z,66.32
2022-12-06T16:36:57.100Z,66.51
2022-12-06T16:39:23.864Z,66.97
2022-12-06T16:41:50.606Z,67.12
2022-12-06T16:44:17.372Z,66.97
2022-12-06T16:46:45.696Z,67.06
2022-12-06T16:52:11.038Z,67.51
2022-12-06T16:54:41.801Z,67.24
2022-12-06T16:57:10.187Z,67.42
2022-12-06T16:59:37.167Z,67.96
2022-12-06T17:02:08.586Z,68.20
2022-12-06T17:04:39.699Z,68.13
2022-12-06T17:07:06.570Z,68.62
2022-12-06T17:09:33.241Z,68.71
2022-12-06T17:12:02.793Z,68.75
2022-12-06T17:14:30.461Z,69.08
2022-12-06T17:16:59.239Z,69.22
2022-12-06T17:19:28.281Z,69.69
2022-12-06T17:21:55.828Z,69.89
2022-12-06T17:24:24.891Z,69.63
2022-12-06T17:26:54.132Z,69.95
2022-12-06T17:29:21.531Z,70.09
2022-12-06T17:31:48.339Z,70.10
2022-12-06T17:34:15.752Z,70.34
2022-12-06T17:36:43.069Z,70.37
2022-12-06T17:39:13.007Z,70.63
2022-12-06T17:41:58.318Z,70.76
2022-12-06T17:44:25.326Z,70.89
2022-12-06T17:46:52.115Z,70.85
2022-12-06T17:49:21.605Z,71.08
2022-12-06T17:51:48.990Z,71.04
2022-12-06T17:54:21.201Z,71.29
2022-12-06T17:56:53.567Z,71.21
2022-12-06T17:59:29.063Z,71.28
2022-12-06T18:02:15.069Z,71.57
2022-12-06T18:04:44.111Z,71.22
2022-12-06T18:07:14.566Z,71.24
2022-12-06T18:09:43.774Z,71.71
2022-12-06T18:12:14.916Z,71.84
2022-12-06T18:14:44.088Z,72.01
2022-12-06T18:17:11.722Z,72.08
2022-12-06T18:19:49.376Z,72.32
2022-12-06T18:22:23.265Z,72.17
2022-12-06T18:24:52.367Z,72.72
2022-12-06T18:27:19.103Z,72.99
2022-12-06T18:29:48.826Z,73.07
2022-12-06T18:32:21.145Z,73.50
2022-12-06T18:34:47.835Z,73.25
2022-12-06T18:37:14.540Z,73.61
2022-12-06T18:39:41.374Z,73.64
2022-12-06T18:42:08.116Z,73.72
2022-12-06T18:44:34.847Z,73.96
2022-12-06T18:47:01.616Z,73.84
2022-12-06T18:49:28.942Z,73.96
2022-12-06T18:51:55.648Z,73.83
2022-12-06T18:54:22.533Z,73.63
2022-12-06T18:56:49.229Z,73.94
2022-12-06T18:59:22.016Z,73.86
2022-12-06T19:01:51.354Z,74.03
2022-12-06T19:04:19.540Z,74.24
2022-12-06T19:06:46.298Z,74.52
2022-12-06T19:09:15.624Z,74.57
2022-12-06T19:11:46.286Z,74.84
2022-12-06T19:14:13.901Z,74.94
2022-12-06T19:16:46.346Z,74.99
2022-12-06T19:19:19.366Z,75.08
2022-12-06T19:21:47.530Z,75.41
2022-12-06T19:24:16.778Z,75.55
2022-12-06T19:26:44.578Z,75.80
2022-12-06T19:29:11.773Z,75.60
2022-12-06T19:31:38.442Z,75.86
2022-12-06T19:34:05.416Z,76.03
2022-12-06T19:36:32.821Z,75.96
2022-12-06T19:39:02.061Z,75.96
2022-12-06T19:41:29.735Z,76.55
2022-12-06T19:44:15.188Z,76.97
2022-12-06T19:46:43.905Z,77.36
2022-12-06T19:49:12.403Z,77.19
2022-12-06T19:51:41.652Z,77.04
2022-12-06T19:54:09.224Z,77.09
2022-12-06T19:56:37.060Z,77.18
2022-12-06T19:59:11.605Z,76.93
2022-12-06T20:01:46.484Z,76.70
2022-12-06T20:04:16.471Z,76.96
2022-12-06T20:06:43.609Z,76.89
2022-12-06T20:09:10.919Z,76.61
2022-12-06T20:11:57.396Z,76.50
2022-12-06T20:14:24.192Z,76.62
2022-12-06T20:16:51.197Z,76.60
2022-12-06T20:19:19.320Z,76.51
2022-12-06T20:21:46.216Z,76.45
2022-12-06T20:24:19.046Z,76.39
2022-12-06T20:26:47.258Z,76.34
2022-12-06T20:29:18.070Z,76.36
2022-12-06T20:31:45.718Z,76.47
2022-12-06T20:34:15.379Z,76.32
2022-12-06T20:36:43.119Z,76.34
2022-12-06T20:39:22.056Z,76.12
2022-12-06T20:41:49.845Z,76.07
2022-12-06T20:44:17.275Z,75.90
2022-12-06T20:46:44.883Z,76.10
2022-12-06T20:49:11.638Z,76.12
2022-12-06T20:51:38.337Z,76.20
2022-12-06T20:54:07.171Z,76.18
2022-12-06T20:56:36.828Z,76.08
2022-12-06T20:59:05.304Z,76.02
2022-12-06T21:01:35.734Z,75.88
2022-12-06T21:04:02.869Z,75.89
2022-12-06T21:06:29.597Z,75.86
2022-12-06T21:08:56.336Z,75.79
2022-12-06T21:11:25.095Z,75.90
2022-12-06T21:13:57.113Z,75.80
2022-12-06T21:16:26.585Z,75.72
2022-12-06T21:18:55.968Z,76.01
2022-12-06T21:21:32.610Z,76.09
2022-12-06T21:24:04.986Z,76.00
2022-12-06T21:26:32.301Z,76.40
2022-12-06T21:28:59.639Z,76.64
2022-12-06T21:31:31.650Z,76.95
2022-12-06T21:33:58.597Z,77.22
2022-12-06T21:36:25.868Z,77.68
2022-12-06T21:38:53.354Z,77.74
2022-12-06T21:41:20.923Z,77.91
2022-12-06T21:43:48.059Z,78.09
2022-12-06T21:46:25.943Z,78.59
2022-12-06T21:48:57.846Z,78.92
2022-12-06T21:51:27.685Z,79.40
2022-12-06T21:53:55.237Z,79.78
2022-12-06T21:56:25.401Z,79.87
2022-12-06T21:58:54.324Z,81.01
2022-12-06T22:01:29.026Z,80.62
2022-12-06T22:03:59.350Z,80.61
2022-12-06T22:06:26.723Z,80.45
2022-12-06T22:09:02.727Z,80.60
2022-12-06T22:11:30.477Z,80.72
2022-12-06T22:13:59.645Z,80.95
2022-12-06T22:16:27.389Z,81.26
2022-12-06T22:18:55.315Z,81.26
2022-12-06T22:21:26.235Z,81.64
2022-12-06T22:23:53.245Z,81.56
2022-12-06T22:26:22.924Z,81.62
2022-12-06T22:28:50.491Z,81.63
2022-12-06T22:31:20.255Z,81.57
2022-12-06T22:33:48.000Z,81.53
2022-12-06T22:36:15.720Z,81.56
2022-12-06T22:38:43.077Z,81.48
2022-12-06T22:41:10.341Z,81.47
2022-12-06T22:43:37.550Z,81.43
2022-12-06T22:46:10.947Z,81.09
2022-12-06T22:48:38.257Z,80.96
2022-12-06T22:51:18.439Z,80.89
2022-12-06T22:53:46.551Z,81.54
2022-12-06T22:56:14.585Z,81.19
2022-12-06T22:58:41.532Z,80.90
2022-12-06T23:01:11.877Z,80.72
2022-12-06T23:03:42.955Z,80.49
2022-12-06T23:06:09.963Z,80.42
2022-12-06T23:08:36.891Z,80.21
2022-12-06T23:11:10.517Z,79.99
2022-12-06T23:13:37.287Z,79.97
2022-12-06T23:16:07.923Z,79.75
2022-12-06T23:18:35.169Z,80.07
2022-12-06T23:21:09.613Z,79.96
2022-12-06T23:23:36.596Z,79.77
2022-12-06T23:26:08.654Z,79.79
2022-12-06T23:28:35.802Z,79.67
2022-12-06T23:31:14.179Z,79.54
2022-12-06T23:33:42.615Z,79.88
2022-12-06T23:36:18.244Z,79.47
2022-12-06T23:38:45.103Z,79.55
2022-12-06T23:41:14.843Z,79.45
2022-12-06T23:43:42.006Z,79.43
2022-12-06T23:46:12.696Z,79.29
2022-12-06T23:48:39.718Z,79.24
2022-12-06T23:51:12.214Z,79.15
2022-12-06T23:53:39.661Z,79.08
2022-12-06T23:56:12.087Z,79.04
2022-12-06T23:58:39.717Z,79.18
